sensor_id;sensor_type;location;lat;lon;timestamp;pressure;altitude;pressure_sealevel;temperature;humidity
38939;BME280;24211;49.980;19.776;2024-03-22T00:02:08;99545.81;;;11.48;100.00
38939;BME280;24211;49.980;19.776;2024-03-22T00:04:36;99538.03;;;11.46;100.00
38939;BME280;24211;49.980;19.776;2024-03-22T00:07:03;99543.38;;;11.46;100.00
38939;BME280;24211;49.980;19.776;2024-03-22T00:09:29;99533.94;;;11.44;100.00
38939;BME280;24211;49.980;19.776;2024-03-22T00:11:56;99541.38;;;11.42;100.00
38939;BME280;24211;49.980;19.776;2024-03-22T00:14:23;99545.91;;;11.41;100.00
38939;BME280;24211;49.980;19.776;2024-03-22T00:16:50;99549.00;;;11.38;100.00
38939;BME280;24211;49.980;19.776;2024-03-22T00:19:17;99549.25;;;11.37;100.00
38939;BME280;24211;49.980;19.776;2024-03-22T00:21:44;99546.19;;;11.33;100.00
38939;BME280;24211;49.980;19.776;2024-03-22T00:24:10;99547.25;;;11.32;100.00
38939;BME280;24211;49.980;19.776;2024-03-22T00:26:37;99548.50;;;11.30;100.00
38939;BME280;24211;49.980;19.776;2024-03-22T00:29:03;99549.78;;;11.27;100.00
38939;BME280;24211;49.980;19.776;2024-03-22T00:31:29;99541.75;;;11.27;100.00
38939;BME280;24211;49.980;19.776;2024-03-22T00:33:56;99530.47;;;11.25;100.00
38939;BME280;24211;49.980;19.776;2024-03-22T00:36:23;99541.59;;;11.22;100.00
38939;BME280;24211;49.980;19.776;2024-03-22T00:38:50;99534.59;;;11.21;100.00
38939;BME280;24211;49.980;19.776;2024-03-22T00:41:16;99531.34;;;11.19;100.00
38939;BME280;24211;49.980;19.776;2024-03-22T00:43:43;99541.44;;;11.17;100.00
38939;BME280;24211;49.980;19.776;2024-03-22T00:46:09;99538.78;;;11.17;100.00
38939;BME280;24211;49.980;19.776;2024-03-22T00:48:36;99537.13;;;11.16;100.00
38939;BME280;24211;49.980;19.776;2024-03-22T00:51:03;99526.88;;;11.13;100.00
38939;BME280;24211;49.980;19.776;2024-03-22T00:53:30;99538.88;;;11.10;100.00
38939;BME280;24211;49.980;19.776;2024-03-22T00:55:56;99541.75;;;11.09;100.00
38939;BME280;24211;49.980;19.776;2024-03-22T00:58:27;99533.72;;;11.09;100.00
38939;BME280;24211;49.980;19.776;2024-03-22T01:00:54;99531.47;;;11.06;100.00
38939;BME280;24211;49.980;19.776;2024-03-22T01:03:22;99533.56;;;11.04;100.00
38939;BME280;24211;49.980;19.776;2024-03-22T01:05:48;99532.75;;;11.03;100.00
38939;BME280;24211;49.980;19.776;2024-03-22T01:08:15;99528.22;;;11.04;100.00
38939;BME280;24211;49.980;19.776;2024-03-22T01:10:41;99532.53;;;11.05;100.00
38939;BME280;24211;49.980;19.776;2024-03-22T01:13:08;99530.88;;;11.04;100.00
38939;BME280;24211;49.980;19.776;2024-03-22T01:15:34;99525.38;;;10.99;100.00
38939;BME280;24211;49.980;19.776;2024-03-22T01:18:02;99529.13;;;10.98;100.00
38939;BME280;24211;49.980;19.776;2024-03-22T01:20:28;99530.72;;;10.99;100.00
38939;BME280;24211;49.980;19.776;2024-03-22T01:22:55;99530.72;;;10.99;100.00
38939;BME280;24211;49.980;19.776;2024-03-22T01:25:21;99527.03;;;11.00;100.00
38939;BME280;24211;49.980;19.776;2024-03-22T01:27:47;99522.13;;;10.97;100.00
38939;BME280;24211;49.980;19.776;2024-03-22T01:30:14;99524.81;;;10.97;100.00
38939;BME280;24211;49.980;19.776;2024-03-22T01:32:40;99521.31;;;10.96;100.00
38939;BME280;24211;49.980;19.776;2024-03-22T01:35:08;99523.16;;;10.96;100.00
38939;BME280;24211;49.980;19.776;2024-03-22T01:37:35;99520.47;;;10.96;100.00
38939;BME280;24211;49.980;19.776;2024-03-22T01:40:03;99517.22;;;10.94;100.00
38939;BME280;24211;49.980;19.776;2024-03-22T01:42:30;99523.63;;;10.93;100.00
38939;BME280;24211;49.980;19.776;2024-03-22T01:44:57;99519.28;;;10.92;100.00
38939;BME280;24211;49.980;19.776;2024-03-22T01:47:23;99517.69;;;10.91;100.00
38939;BME280;24211;49.980;19.776;2024-03-22T01:49:53;99516.03;;;10.90;100.00
38939;BME280;24211;49.980;19.776;2024-03-22T01:52:21;99519.97;;;10.87;100.00
38939;BME280;24211;49.980;19.776;2024-03-22T01:54:47;99520.63;;;10.83;100.00
38939;BME280;24211;49.980;19.776;2024-03-22T01:57:13;99522.72;;;10.81;100.00
38939;BME280;24211;49.980;19.776;2024-03-22T01:59:39;99514.06;;;10.79;100.00
38939;BME280;24211;49.980;19.776;2024-03-22T02:02:06;99518.41;;;10.80;100.00
38939;BME280;24211;49.980;19.776;2024-03-22T02:04:33;99514.06;;;10.79;100.00
38939;BME280;24211;49.980;19.776;2024-03-22T02:06:59;99521.50;;;10.77;100.00
38939;BME280;24211;49.980;19.776;2024-03-22T02:09:26;99522.16;;;10.72;100.00
38939;BME280;24211;49.980;19.776;2024-03-22T02:11:52;99521.56;;;10.70;100.00
38939;BME280;24211;49.980;19.776;2024-03-22T02:14:18;99529.19;;;10.67;100.00
38939;BME280;24211;49.980;19.776;2024-03-22T02:16:45;99527.78;;;10.64;100.00
38939;BME280;24211;49.980;19.776;2024-03-22T02:19:11;99521.19;;;10.67;100.00
38939;BME280;24211;49.980;19.776;2024-03-22T02:21:38;99533.09;;;10.71;100.00
38939;BME280;24211;49.980;19.776;2024-03-22T02:24:04;99529.38;;;10.72;100.00
38939;BME280;24211;49.980;19.776;2024-03-22T02:26:31;99533.09;;;10.71;100.00
38939;BME280;24211;49.980;19.776;2024-03-22T02:28:57;99533.97;;;10.65;100.00
38939;BME280;24211;49.980;19.776;2024-03-22T02:31:23;99531.50;;;10.63;100.00
38939;BME280;24211;49.980;19.776;2024-03-22T02:33:51;99521.25;;;10.60;100.00
38939;BME280;24211;49.980;19.776;2024-03-22T02:36:18;99532.78;;;10.61;100.00
38939;BME280;24211;49.980;19.776;2024-03-22T02:38:44;99528.25;;;10.61;100.00
38939;BME280;24211;49.980;19.776;2024-03-22T02:41:11;99529.03;;;10.62;100.00
38939;BME280;24211;49.980;19.776;2024-03-22T02:43:37;99530.28;;;10.59;100.00
38939;BME280;24211;49.980;19.776;2024-03-22T02:46:03;99524.53;;;10.62;100.00
38939;BME280;24211;49.980;19.776;2024-03-22T02:48:30;99531.13;;;10.60;100.00
38939;BME280;24211;49.980;19.776;2024-03-22T02:50:58;99528.09;;;10.56;100.00
38939;BME280;24211;49.980;19.776;2024-03-22T02:53:24;99532.19;;;10.59;100.00
38939;BME280;24211;49.980;19.776;2024-03-22T02:55:50;99534.88;;;10.52;100.00
38939;BME280;24211;49.980;19.776;2024-03-22T02:58:20;99537.78;;;10.50;100.00
38939;BME280;24211;49.980;19.776;2024-03-22T03:00:47;99531.63;;;10.50;100.00
38939;BME280;24211;49.980;19.776;2024-03-22T03:03:13;99527.09;;;10.50;100.00
38939;BME280;24211;49.980;19.776;2024-03-22T03:05:41;99537.38;;;10.54;100.00
38939;BME280;24211;49.980;19.776;2024-03-22T03:08:08;99526.66;;;10.54;100.00
38939;BME280;24211;49.980;19.776;2024-03-22T03:10:36;99530.38;;;10.52;100.00
38939;BME280;24211;49.980;19.776;2024-03-22T03:13:02;99534.88;;;10.52;100.00
38939;BME280;24211;49.980;19.776;2024-03-22T03:15:29;99539.44;;;10.52;100.00
38939;BME280;24211;49.980;19.776;2024-03-22T03:17:55;99527.94;;;10.51;100.00
38939;BME280;24211;49.980;19.776;2024-03-22T03:20:21;99528.75;;;10.52;100.00
38939;BME280;24211;49.980;19.776;2024-03-22T03:22:47;99530.38;;;10.52;100.00
38939;BME280;24211;49.980;19.776;2024-03-22T03:25:14;99526.66;;;10.54;100.00
38939;BME280;24211;49.980;19.776;2024-03-22T03:27:40;99527.69;;;10.52;100.00
38939;BME280;24211;49.980;19.776;2024-03-22T03:30:07;99528.53;;;10.53;100.00
38939;BME280;24211;49.980;19.776;2024-03-22T03:32:33;99522.59;;;10.51;100.00
38939;BME280;24211;49.980;19.776;2024-03-22T03:35:00;99528.75;;;10.52;100.00
38939;BME280;24211;49.980;19.776;2024-03-22T03:37:26;99512.72;;;10.52;100.00
38939;BME280;24211;49.980;19.776;2024-03-22T03:39:52;99518.44;;;10.55;100.00
38939;BME280;24211;49.980;19.776;2024-03-22T03:42:18;99515.16;;;10.53;100.00
38939;BME280;24211;49.980;19.776;2024-03-22T03:44:45;99512.72;;;10.52;100.00
38939;BME280;24211;49.980;19.776;2024-03-22T03:47:11;99515.59;;;10.50;100.00
38939;BME280;24211;49.980;19.776;2024-03-22T03:49:37;99521.75;;;10.50;100.00
38939;BME280;24211;49.980;19.776;2024-03-22T03:52:04;99510.47;;;10.48;100.00
38939;BME280;24211;49.980;19.776;2024-03-22T03:54:30;99502.47;;;10.48;100.00
38939;BME280;24211;49.980;19.776;2024-03-22T03:56:56;99511.06;;;10.50;100.00
38939;BME280;24211;49.980;19.776;2024-03-22T03:59:23;99506.75;;;10.49;100.00
38939;BME280;24211;49.980;19.776;2024-03-22T04:01:49;99507.81;;;10.48;100.00
38939;BME280;24211;49.980;19.776;2024-03-22T04:04:15;99507.81;;;10.48;100.00
38939;BME280;24211;49.980;19.776;2024-03-22T04:06:43;99511.50;;;10.47;100.00
38939;BME280;24211;49.980;19.776;2024-03-22T04:09:10;99509.41;;;10.49;100.00
38939;BME280;24211;49.980;19.776;2024-03-22T04:11:36;99513.16;;;10.48;100.00
38939;BME280;24211;49.980;19.776;2024-03-22T04:14:05;99504.06;;;10.49;100.00
38939;BME280;24211;49.980;19.776;2024-03-22T04:16:32;99518.50;;;10.48;100.00
38939;BME280;24211;49.980;19.776;2024-03-22T04:18:59;99517.91;;;10.46;100.00
38939;BME280;24211;49.980;19.776;2024-03-22T04:21:25;99518.31;;;10.43;100.00
38939;BME280;24211;49.980;19.776;2024-03-22T04:23:51;99518.31;;;10.43;100.00
38939;BME280;24211;49.980;19.776;2024-03-22T04:26:18;99515.66;;;10.43;100.00
38939;BME280;24211;49.980;19.776;2024-03-22T04:28:44;99515.66;;;10.43;100.00
38939;BME280;24211;49.980;19.776;2024-03-22T04:31:10;99516.47;;;10.44;100.00
38939;BME280;24211;49.980;19.776;2024-03-22T04:33:38;99521.00;;;10.43;100.00
38939;BME280;24211;49.980;19.776;2024-03-22T04:36:04;99517.72;;;10.41;100.00
38939;BME280;24211;49.980;19.776;2024-03-22T04:38:31;99523.06;;;10.41;100.00
38939;BME280;24211;49.980;19.776;2024-03-22T04:40:58;99523.28;;;10.40;100.00
38939;BME280;24211;49.980;19.776;2024-03-22T04:43:25;99521.19;;;10.42;100.00
38939;BME280;24211;49.980;19.776;2024-03-22T04:45:52;99524.69;;;10.42;100.00
38939;BME280;24211;49.980;19.776;2024-03-22T04:48:20;99521.00;;;10.43;100.00
38939;BME280;24211;49.980;19.776;2024-03-22T04:50:48;99524.69;;;10.42;100.00
38939;BME280;24211;49.980;19.776;2024-03-22T04:53:17;99532.13;;;10.40;100.00
38939;BME280;24211;49.980;19.776;2024-03-22T04:55:44;99525.75;;;10.41;100.00
38939;BME280;24211;49.980;19.776;2024-03-22T04:58:16;99532.50;;;10.44;100.00
38939;BME280;24211;49.980;19.776;2024-03-22T05:00:43;99519.34;;;10.42;100.00
38939;BME280;24211;49.980;19.776;2024-03-22T05:03:10;99523.44;;;10.45;100.00
38939;BME280;24211;49.980;19.776;2024-03-22T05:05:38;99526.34;;;10.43;100.00
38939;BME280;24211;49.980;19.776;2024-03-22T05:08:06;99532.50;;;10.44;100.00
38939;BME280;24211;49.980;19.776;2024-03-22T05:10:33;99535.78;;;10.46;100.00
38939;BME280;24211;49.980;19.776;2024-03-22T05:13:00;99534.94;;;10.45;100.00
38939;BME280;24211;49.980;19.776;2024-03-22T05:15:27;99541.13;;;10.46;100.00
38939;BME280;24211;49.980;19.776;2024-03-22T05:17:56;99535.19;;;10.44;100.00
38939;BME280;24211;49.980;19.776;2024-03-22T05:20:22;99540.91;;;10.47;100.00
38939;BME280;24211;49.980;19.776;2024-03-22T05:22:49;99539.44;;;10.52;100.00
38939;BME280;24211;49.980;19.776;2024-03-22T05:25:15;99539.44;;;10.52;100.00
38939;BME280;24211;49.980;19.776;2024-03-22T05:27:42;99533.03;;;10.52;100.00
38939;BME280;24211;49.980;19.776;2024-03-22T05:30:10;99542.09;;;10.52;100.00
38939;BME280;24211;49.980;19.776;2024-03-22T05:32:37;99552.78;;;10.52;100.00
38939;BME280;24211;49.980;19.776;2024-03-22T05:35:04;99551.75;;;10.52;100.00
38939;BME280;24211;49.980;19.776;2024-03-22T05:37:31;99558.75;;;10.54;100.00
38939;BME280;24211;49.980;19.776;2024-03-22T05:39:57;99544.31;;;10.55;100.00
38939;BME280;24211;49.980;19.776;2024-03-22T05:42:25;99545.53;;;10.59;100.00
38939;BME280;24211;49.980;19.776;2024-03-22T05:44:52;99549.00;;;10.59;100.00
38939;BME280;24211;49.980;19.776;2024-03-22T05:47:19;99548.38;;;10.64;100.00
38939;BME280;24211;49.980;19.776;2024-03-22T05:49:47;99537.69;;;10.64;100.00
38939;BME280;24211;49.980;19.776;2024-03-22T05:52:13;99544.66;;;10.65;100.00
38939;BME280;24211;49.980;19.776;2024-03-22T05:54:39;99535.59;;;10.66;100.00
38939;BME280;24211;49.980;19.776;2024-03-22T05:57:07;99538.88;;;10.68;100.00
38939;BME280;24211;49.980;19.776;2024-03-22T05:59:33;99543.97;;;10.69;100.00
38939;BME280;24211;49.980;19.776;2024-03-22T06:02:00;99545.41;;;10.72;100.00
38939;BME280;24211;49.980;19.776;2024-03-22T06:04:27;99547.06;;;10.73;100.00
38939;BME280;24211;49.980;19.776;2024-03-22T06:06:54;99548.22;;;10.77;100.00
38939;BME280;24211;49.980;19.776;2024-03-22T06:09:20;99546.97;;;10.79;100.00
38939;BME280;24211;49.980;19.776;2024-03-22T06:12:04;99547.38;;;10.83;100.00
38939;BME280;24211;49.980;19.776;2024-03-22T06:14:31;99543.19;;;10.87;100.00
38939;BME280;24211;49.980;19.776;2024-03-22T06:16:58;99542.78;;;10.90;100.00
38939;BME280;24211;49.980;19.776;2024-03-22T06:19:24;99542.09;;;10.94;100.00
38939;BME280;24211;49.980;19.776;2024-03-22T06:21:51;99541.00;;;11.02;100.00
38939;BME280;24211;49.980;19.776;2024-03-22T06:24:17;99536.81;;;11.06;100.00
38939;BME280;24211;49.980;19.776;2024-03-22T06:26:44;99537.22;;;11.09;100.00
38939;BME280;24211;49.980;19.776;2024-03-22T06:29:10;99541.31;;;11.12;100.00
38939;BME280;24211;49.980;19.776;2024-03-22T06:31:36;99542.47;;;11.16;100.00
38939;BME280;24211;49.980;19.776;2024-03-22T06:34:02;99537.28;;;11.21;100.00
38939;BME280;24211;49.980;19.776;2024-03-22T06:36:31;99541.97;;;11.26;100.00
38939;BME280;24211;49.980;19.776;2024-03-22T06:38:58;99536.56;;;11.32;100.00
38939;BME280;24211;49.980;19.776;2024-03-22T06:41:31;99537.72;;;11.36;100.00
38939;BME280;24211;49.980;19.776;2024-03-22T06:43:57;99545.53;;;11.38;100.00
38939;BME280;24211;49.980;19.776;2024-03-22T06:46:23;99536.84;;;11.42;100.00
38939;BME280;24211;49.980;19.776;2024-03-22T06:48:52;99540.09;;;11.44;100.00
38939;BME280;24211;49.980;19.776;2024-03-22T06:51:19;99543.50;;;11.51;100.00
38939;BME280;24211;49.980;19.776;2024-03-22T06:53:45;99547.38;;;11.55;100.00
38939;BME280;24211;49.980;19.776;2024-03-22T06:56:12;99547.31;;;11.62;100.00
38939;BME280;24211;49.980;19.776;2024-03-22T06:58:39;99550.31;;;11.65;100.00
38939;BME280;24211;49.980;19.776;2024-03-22T07:01:05;99550.91;;;11.67;100.00
38939;BME280;24211;49.980;19.776;2024-03-22T07:03:32;99551.56;;;11.69;100.00
38939;BME280;24211;49.980;19.776;2024-03-22T07:06:00;99552.16;;;11.71;100.00
38939;BME280;24211;49.980;19.776;2024-03-22T07:08:26;99542.22;;;11.72;100.00
38939;BME280;24211;49.980;19.776;2024-03-22T07:10:54;99549.59;;;11.76;100.00
38939;BME280;24211;49.980;19.776;2024-03-22T07:13:21;99545.88;;;11.77;100.00
38939;BME280;24211;49.980;19.776;2024-03-22T07:15:47;99542.16;;;11.78;100.00
38939;BME280;24211;49.980;19.776;2024-03-22T07:18:14;99545.88;;;11.77;100.00
38939;BME280;24211;49.980;19.776;2024-03-22T07:20:42;99540.97;;;11.74;100.00
38939;BME280;24211;49.980;19.776;2024-03-22T07:23:09;99542.59;;;11.75;100.00
38939;BME280;24211;49.980;19.776;2024-03-22T07:25:35;99549.00;;;11.74;100.00
38939;BME280;24211;49.980;19.776;2024-03-22T07:28:02;99542.47;;;11.70;100.00
38939;BME280;24211;49.980;19.776;2024-03-22T07:30:29;99545.97;;;11.71;100.00
38939;BME280;24211;49.980;19.776;2024-03-22T07:32:55;99545.16;;;11.70;100.00
38939;BME280;24211;49.980;19.776;2024-03-22T07:35:22;99538.75;;;11.71;100.00
38939;BME280;24211;49.980;19.776;2024-03-22T07:37:48;99542.47;;;11.70;100.00
38939;BME280;24211;49.980;19.776;2024-03-22T07:40:15;99541.44;;;11.71;100.00
38939;BME280;24211;49.980;19.776;2024-03-22T07:42:41;99544.56;;;11.68;100.00
38939;BME280;24211;49.980;19.776;2024-03-22T07:45:08;99547.44;;;11.67;100.00
38939;BME280;24211;49.980;19.776;2024-03-22T07:47:35;99543.13;;;11.66;100.00
38939;BME280;24211;49.980;19.776;2024-03-22T07:50:02;99533.69;;;11.63;100.00
38939;BME280;24211;49.980;19.776;2024-03-22T07:52:28;99528.31;;;11.63;100.00
38939;BME280;24211;49.980;19.776;2024-03-22T07:54:55;99533.22;;;11.66;100.00
38939;BME280;24211;49.980;19.776;2024-03-22T07:57:21;99533.44;;;11.65;100.00
38939;BME280;24211;49.980;19.776;2024-03-22T07:59:47;99522.53;;;11.66;100.00
38939;BME280;24211;49.980;19.776;2024-03-22T08:02:13;99525.41;;;11.65;100.00
38939;BME280;24211;49.980;19.776;2024-03-22T08:04:40;99515.53;;;11.65;100.00
38939;BME280;24211;49.980;19.776;2024-03-22T08:07:06;99519.44;;;11.69;100.00
38939;BME280;24211;49.980;19.776;2024-03-22T08:09:32;99517.56;;;11.70;100.00
38939;BME280;24211;49.980;19.776;2024-03-22T08:11:58;99511.41;;;11.69;100.00
38939;BME280;24211;49.980;19.776;2024-03-22T08:14:25;99518.59;;;11.69;100.00
38939;BME280;24211;49.980;19.776;2024-03-22T08:16:51;99516.28;;;11.72;100.00
38939;BME280;24211;49.980;19.776;2024-03-22T08:19:18;99513.03;;;11.70;100.00
38939;BME280;24211;49.980;19.776;2024-03-22T08:21:44;99511.41;;;11.69;100.00
38939;BME280;24211;49.980;19.776;2024-03-22T08:24:11;99511.41;;;11.69;100.00
38939;BME280;24211;49.980;19.776;2024-03-22T08:26:37;99509.75;;;11.68;100.00
38939;BME280;24211;49.980;19.776;2024-03-22T08:29:04;99512.44;;;11.68;100.00
38939;BME280;24211;49.980;19.776;2024-03-22T08:31:30;99510.34;;;11.70;100.00
38939;BME280;24211;49.980;19.776;2024-03-22T08:33:56;99508.03;;;11.74;100.00
38939;BME280;24211;49.980;19.776;2024-03-22T08:36:23;99500.94;;;11.79;100.00
38939;BME280;24211;49.980;19.776;2024-03-22T08:38:50;99506.91;;;11.82;100.00
38939;BME280;24211;49.980;19.776;2024-03-22T08:41:16;99504.81;;;11.84;100.00
38939;BME280;24211;49.980;19.776;2024-03-22T08:43:43;99504.94;;;11.89;100.00
38939;BME280;24211;49.980;19.776;2024-03-22T08:46:10;99508.22;;;11.91;100.00
38939;BME280;24211;49.980;19.776;2024-03-22T08:48:36;99511.47;;;11.93;100.00
38939;BME280;24211;49.980;19.776;2024-03-22T08:51:03;99516.38;;;11.96;100.00
38939;BME280;24211;49.980;19.776;2024-03-22T08:53:29;99511.03;;;11.96;100.00
38939;BME280;24211;49.980;19.776;2024-03-22T08:55:55;99510.56;;;11.99;100.00
38939;BME280;24211;49.980;19.776;2024-03-22T08:58:22;99510.56;;;11.99;100.00
38939;BME280;24211;49.980;19.776;2024-03-22T09:00:48;99520.81;;;12.02;100.00
38939;BME280;24211;49.980;19.776;2024-03-22T09:03:15;99517.22;;;12.08;100.00
38939;BME280;24211;49.980;19.776;2024-03-22T09:05:41;99514.53;;;12.08;100.00
38939;BME280;24211;49.980;19.776;2024-03-22T09:08:08;99515.25;;;12.15;100.00
38939;BME280;24211;49.980;19.776;2024-03-22T09:10:35;99511.66;;;12.21;100.00
38939;BME280;24211;49.980;19.776;2024-03-22T09:13:01;99505.63;;;12.25;100.00
38939;BME280;24211;49.980;19.776;2024-03-22T09:15:28;99507.94;;;12.33;100.00
38939;BME280;24211;49.980;19.776;2024-03-22T09:17:55;99504.09;;;12.41;100.00
38939;BME280;24211;49.980;19.776;2024-03-22T09:20:21;99509.59;;;12.46;100.00
38939;BME280;24211;49.980;19.776;2024-03-22T09:22:48;99508.66;;;12.52;100.00
38939;BME280;24211;49.980;19.776;2024-03-22T09:25:15;99507.59;;;12.53;100.00
38939;BME280;24211;49.980;19.776;2024-03-22T09:27:42;99506.31;;;12.56;100.00
38939;BME280;24211;49.980;19.776;2024-03-22T09:30:09;99501.31;;;12.59;100.00
38939;BME280;24211;49.980;19.776;2024-03-22T09:32:36;99507.97;;;12.57;100.00
38939;BME280;24211;49.980;19.776;2024-03-22T09:35:02;99501.19;;;12.54;100.00
38939;BME280;24211;49.980;19.776;2024-03-22T09:37:29;99504.34;;;12.51;100.00
38939;BME280;24211;49.980;19.776;2024-03-22T09:39:55;99509.50;;;12.53;100.00
38939;BME280;24211;49.980;19.776;2024-03-22T09:42:23;99509.25;;;12.54;100.00
38939;BME280;24211;49.980;19.776;2024-03-22T09:44:51;99495.72;;;12.49;100.00
38939;BME280;24211;49.980;19.776;2024-03-22T09:47:18;99504.91;;;12.41;100.00
38939;BME280;24211;49.980;19.776;2024-03-22T09:49:47;99509.00;;;12.44;100.00
38939;BME280;24211;49.980;19.776;2024-03-22T09:52:16;99505.28;;;12.45;100.00
38939;BME280;24211;49.980;19.776;2024-03-22T09:54:45;99502.59;;;12.45;100.00
38939;BME280;24211;49.980;19.776;2024-03-22T09:57:15;99502.94;;;12.37;100.00
38939;BME280;24211;49.980;19.776;2024-03-22T09:59:45;99507.72;;;12.35;100.00
38939;BME280;24211;49.980;19.776;2024-03-22T10:02:13;99500.59;;;12.29;100.00
38939;BME280;24211;49.980;19.776;2024-03-22T10:04:41;99504.22;;;12.34;100.00
38939;BME280;24211;49.980;19.776;2024-03-22T10:07:08;99501.53;;;12.34;100.00
38939;BME280;24211;49.980;19.776;2024-03-22T10:09:37;99496.88;;;12.30;100.00
38939;BME280;24211;49.980;19.776;2024-03-22T10:12:04;99498.03;;;12.34;100.00
38939;BME280;24211;49.980;19.776;2024-03-22T10:14:31;99494.91;;;12.37;100.00
38939;BME280;24211;49.980;19.776;2024-03-22T10:16:59;99495.94;;;12.36;100.00
38939;BME280;24211;49.980;19.776;2024-03-22T10:19:26;99494.78;;;12.32;100.00
38939;BME280;24211;49.980;19.776;2024-03-22T10:22:04;99496.41;;;12.33;100.00
38939;BME280;24211;49.980;19.776;2024-03-22T10:24:32;99485.69;;;12.33;100.00
38939;BME280;24211;49.980;19.776;2024-03-22T10:26:59;99491.19;;;12.38;100.00
38939;BME280;24211;49.980;19.776;2024-03-22T10:29:26;99482.06;;;12.39;100.00
38939;BME280;24211;49.980;19.776;2024-03-22T10:31:55;99489.19;;;12.45;100.00
38939;BME280;24211;49.980;19.776;2024-03-22T10:34:22;99480.78;;;12.53;100.00
38939;BME280;24211;49.980;19.776;2024-03-22T10:36:51;99493.41;;;12.64;100.00
38939;BME280;24211;49.980;19.776;2024-03-22T10:39:18;99481.25;;;12.73;100.00
38939;BME280;24211;49.980;19.776;2024-03-22T10:41:48;99480.91;;;12.81;100.00
38939;BME280;24211;49.980;19.776;2024-03-22T10:44:16;99468.53;;;12.92;100.00
38939;BME280;24211;49.980;19.776;2024-03-22T10:46:47;99461.66;;;13.07;100.00
38939;BME280;24211;49.980;19.776;2024-03-22T10:49:19;99452.88;;;13.24;100.00
38939;BME280;24211;49.980;19.776;2024-03-22T10:51:58;99446.16;;;13.38;100.00
38939;BME280;24211;49.980;19.776;2024-03-22T10:54:33;99436.75;;;13.52;100.00
38939;BME280;24211;49.980;19.776;2024-03-22T10:57:01;99451.75;;;13.64;100.00
38939;BME280;24211;49.980;19.776;2024-03-22T10:59:36;99445.75;;;13.74;100.00
38939;BME280;24211;49.980;19.776;2024-03-22T11:02:04;99448.22;;;13.92;100.00
38939;BME280;24211;49.980;19.776;2024-03-22T11:04:33;99447.84;;;14.00;100.00
38939;BME280;24211;49.980;19.776;2024-03-22T11:07:01;99440.91;;;14.04;100.00
38939;BME280;24211;49.980;19.776;2024-03-22T11:09:30;99446.94;;;14.11;100.00
38939;BME280;24211;49.980;19.776;2024-03-22T11:11:57;99440.59;;;14.17;100.00
38939;BME280;24211;49.980;19.776;2024-03-22T11:14:25;99443.38;;;14.22;100.00
38939;BME280;24211;49.980;19.776;2024-03-22T11:16:51;99440.41;;;14.24;100.00
38939;BME280;24211;49.980;19.776;2024-03-22T11:19:17;99432.44;;;14.29;100.00
38939;BME280;24211;49.980;19.776;2024-03-22T11:21:44;99430.69;;;14.34;100.00
38939;BME280;24211;49.980;19.776;2024-03-22T11:24:11;99427.53;;;14.43;100.00
38939;BME280;24211;49.980;19.776;2024-03-22T11:26:38;99421.19;;;14.49;100.00
38939;BME280;24211;49.980;19.776;2024-03-22T11:29:05;99426.56;;;14.49;100.00
38939;BME280;24211;49.980;19.776;2024-03-22T11:31:32;99413.19;;;14.54;100.00
38939;BME280;24211;49.980;19.776;2024-03-22T11:34:00;99404.72;;;14.62;100.00
38939;BME280;24211;49.980;19.776;2024-03-22T11:36:26;99402.59;;;14.64;100.00
38939;BME280;24211;49.980;19.776;2024-03-22T11:38:53;99392.94;;;14.68;100.00
38939;BME280;24211;49.980;19.776;2024-03-22T11:41:26;99392.09;;;14.84;100.00
38939;BME280;24211;49.980;19.776;2024-03-22T11:43:55;99394.38;;;14.97;100.00
38939;BME280;24211;49.980;19.776;2024-03-22T11:46:25;99384.78;;;15.01;100.00
38939;BME280;24211;49.980;19.776;2024-03-22T11:48:53;99389.06;;;15.02;100.00
38939;BME280;24211;49.980;19.776;2024-03-22T11:51:20;99378.06;;;15.03;100.00
38939;BME280;24211;49.980;19.776;2024-03-22T11:53:53;99379.25;;;15.13;100.00
38939;BME280;24211;49.980;19.776;2024-03-22T11:56:25;99367.16;;;15.15;100.00
38939;BME280;24211;49.980;19.776;2024-03-22T11:58:59;99372.47;;;15.10;100.00
38939;BME280;24211;49.980;19.776;2024-03-22T12:01:27;99369.78;;;15.10;100.00
38939;BME280;24211;49.980;19.776;2024-03-22T12:03:54;99360.13;;;15.14;100.00
38939;BME280;24211;49.980;19.776;2024-03-22T12:06:21;99355.88;;;15.18;100.00
38939;BME280;24211;49.980;19.776;2024-03-22T12:08:48;99364.53;;;15.20;100.00
38939;BME280;24211;49.980;19.776;2024-03-22T12:11:14;99352.22;;;15.29;100.00
38939;BME280;24211;49.980;19.776;2024-03-22T12:13:41;99341.03;;;15.42;100.00
38939;BME280;24211;49.980;19.776;2024-03-22T12:16:07;99328.75;;;15.51;100.00
38939;BME280;24211;49.980;19.776;2024-03-22T12:18:34;99326.44;;;15.60;100.00
38939;BME280;24211;49.980;19.776;2024-03-22T12:21:01;99333.22;;;15.67;100.00
38939;BME280;24211;49.980;19.776;2024-03-22T12:23:28;99333.81;;;15.75;100.00
38939;BME280;24211;49.980;19.776;2024-03-22T12:25:54;99332.28;;;15.84;100.00
38939;BME280;24211;49.980;19.776;2024-03-22T12:28:22;99335.00;;;15.89;100.00
38939;BME280;24211;49.980;19.776;2024-03-22T12:30:50;99327.47;;;15.91;100.00
38939;BME280;24211;49.980;19.776;2024-03-22T12:33:16;99319.66;;;15.89;100.00
38939;BME280;24211;49.980;19.776;2024-03-22T12:35:42;99312.84;;;15.82;100.00
38939;BME280;24211;49.980;19.776;2024-03-22T12:38:09;99311.69;;;15.73;100.00
38939;BME280;24211;49.980;19.776;2024-03-22T12:40:38;99311.38;;;15.64;100.00